PWSweather.com
Personal Weather Stations
Station Observations
KNCGREEN1000
Bell Orchard Drive, Greensboro, NC 27455

Bell Orchard DriveGreensboro, NC 27455

Lat: 36.132, Lon: -79.8

Elevation: 876

Station Type: Acurite Atlas

Http://www.gilhutcheson.com

High Low Average
Temperature 54.8°F12.7°C 29.5°F-1.4°C 41.9°F5.5°C
Dew Point 53.7°F12.1°C 16.6°F-8.6°C 29.5°F-1.4°C
Winds 14.0 mph 22.5 kmh Calm Calm 3.0 mph SSE4.8 kmh SSE
Wind Gusts -- -- --
Humidity 96% 32% 64%
Pressure 30.39 in1029.1 mb 30.12 in1020.0 mb -
Precipitation 0.03 in0.8 mm - -
Hour Temp Dew Point Humidity Winds Wind Gusts Pressure Precip Precip Rate Daily Precip Total
12:01 AM 54.8°F12.7°C 53.7°F12.1°C 96% 2.0 mph S3.2 kmh S -- 30.13 in1020.3 mb 0.03 in0.8 mm 1.80 in45.7 mm 0.03 in0.8 mm
12:06 AM 54.7°F12.6°C 53.6°F12.0°C 96% 2.0 mph SW3.2 kmh SW -- 30.14 in1020.7 mb 0.03 in0.8 mm 0.00 in0.0 mm 0.03 in0.8 mm
12:11 AM 54.5°F12.5°C 53.4°F11.9°C 96% 3.0 mph SE4.8 kmh SE -- 30.13 in1020.3 mb 0.02 in0.5 mm 0.00 in0.0 mm 0.03 in0.8 mm
12:16 AM 54.5°F12.5°C 53.4°F11.9°C 96% 2.0 mph S3.2 kmh S -- 30.13 in1020.3 mb 0.02 in0.5 mm 0.00 in0.0 mm 0.03 in0.8 mm
12:21 AM 54.5°F12.5°C 53.4°F11.9°C 96% 2.0 mph S3.2 kmh S -- 30.14 in1020.7 mb 0.01 in0.3 mm 0.00 in0.0 mm 0.03 in0.8 mm
12:25 AM 54.2°F12.3°C 53.0°F11.7°C 96% 2.0 mph S3.2 kmh S -- 30.14 in1020.7 mb 0.01 in0.3 mm 0.00 in0.0 mm 0.03 in0.8 mm
12:31 AM 53.9°F12.2°C 52.5°F11.4°C 95% 3.0 mph S4.8 kmh S -- 30.14 in1020.7 mb 0.01 in0.3 mm 0.00 in0.0 mm 0.03 in0.8 mm
12:36 AM 53.4°F11.9°C 51.1°F10.6°C 92% 8.0 mph S12.9 kmh S -- 30.13 in1020.3 mb 0.02 in0.5 mm 0.12 in3.0 mm 0.01 in0.3 mm
12:41 AM 53.1°F11.7°C 50.8°F10.4°C 92% 4.0 mph S6.4 kmh S -- 30.13 in1020.3 mb 0.02 in0.5 mm 0.00 in0.0 mm 0.01 in0.3 mm
12:45 AM 52.8°F11.6°C 50.6°F10.3°C 92% 4.0 mph SW6.4 kmh SW -- 30.13 in1020.3 mb 0.02 in0.5 mm 0.00 in0.0 mm 0.01 in0.3 mm
12:51 AM 52.5°F11.4°C 50.5°F10.3°C 93% 4.0 mph S6.4 kmh S -- 30.13 in1020.3 mb 0.01 in0.3 mm 0.00 in0.0 mm 0.01 in0.3 mm
12:56 AM 52.3°F11.3°C 50.4°F10.2°C 93% 3.0 mph SSE4.8 kmh SSE -- 30.13 in1020.3 mb 0.01 in0.3 mm 0.00 in0.0 mm 0.01 in0.3 mm
01:01 AM 52.1°F11.2°C 50.2°F10.1°C 93% 3.0 mph S4.8 kmh S -- 30.13 in1020.3 mb 0.02 in0.5 mm 0.01 in0.3 mm 0.02 in0.5 mm
01:06 AM 51.9°F11.1°C 50.3°F10.2°C 94% 2.0 mph S3.2 kmh S -- 30.14 in1020.7 mb 0.02 in0.5 mm 0.00 in0.0 mm 0.02 in0.5 mm
01:11 AM 51.6°F10.9°C 49.6°F9.8°C 93% 4.0 mph SSE6.4 kmh SSE -- 30.14 in1020.7 mb 0.02 in0.5 mm 0.00 in0.0 mm 0.02 in0.5 mm
01:16 AM 51.5°F10.8°C 49.5°F9.7°C 93% 2.0 mph SW3.2 kmh SW -- 30.13 in1020.3 mb 0.03 in0.8 mm 0.12 in3.0 mm 0.03 in0.8 mm
01:21 AM 51.3°F10.7°C 49.3°F9.6°C 93% 8.0 mph SE12.9 kmh SE -- 30.14 in1020.7 mb 0.03 in0.8 mm 0.00 in0.0 mm 0.03 in0.8 mm
01:26 AM 51.1°F10.6°C 49.1°F9.5°C 93% 3.0 mph S4.8 kmh S -- 30.14 in1020.7 mb 0.03 in0.8 mm 0.00 in0.0 mm 0.03 in0.8 mm
01:31 AM 50.8°F10.4°C 48.7°F9.3°C 93% 1.0 mph SSW1.6 kmh SSW -- 30.13 in1020.3 mb 0.02 in0.5 mm 0.00 in0.0 mm 0.03 in0.8 mm
01:36 AM 50.7°F10.4°C 48.7°F9.3°C 93% 1.0 mph SSW1.6 kmh SSW -- 30.13 in1020.3 mb 0.02 in0.5 mm 0.00 in0.0 mm 0.03 in0.8 mm
01:41 AM 50.7°F10.4°C 49.0°F9.4°C 94% 3.0 mph S4.8 kmh S -- 30.13 in1020.3 mb 0.02 in0.5 mm 0.00 in0.0 mm 0.03 in0.8 mm
01:46 AM 50.6°F10.3°C 48.9°F9.4°C 94% 1.0 mph SW1.6 kmh SW -- 30.13 in1020.3 mb 0.02 in0.5 mm 0.00 in0.0 mm 0.03 in0.8 mm
01:51 AM 50.5°F10.3°C 49.1°F9.5°C 95% 2.0 mph S3.2 kmh S -- 30.14 in1020.7 mb 0.01 in0.3 mm 0.00 in0.0 mm 0.03 in0.8 mm
01:55 AM 50.4°F10.2°C 49.0°F9.4°C 95% 2.0 mph SSW3.2 kmh SSW -- 30.13 in1020.3 mb 0.01 in0.3 mm 0.00 in0.0 mm 0.03 in0.8 mm
02:00 AM 50.3°F10.2°C 48.7°F9.3°C 94% 2.0 mph SSW3.2 kmh SSW -- 30.13 in1020.3 mb 0.01 in0.3 mm 0.00 in0.0 mm 0.03 in0.8 mm
02:06 AM 50.2°F10.1°C 48.5°F9.2°C 94% 3.0 mph SW4.8 kmh SW -- 30.13 in1020.3 mb 0.01 in0.3 mm 0.00 in0.0 mm 0.03 in0.8 mm
02:11 AM 50.2°F10.1°C 48.5°F9.2°C 94% 3.0 mph SW4.8 kmh SW -- 30.13 in1020.3 mb 0.00 in0.0 mm 0.00 in0.0 mm 0.03 in0.8 mm
02:15 AM 50.0°F10.0°C 48.3°F9.1°C 94% 2.0 mph SSW3.2 kmh SSW -- 30.13 in1020.3 mb 0.00 in0.0 mm 0.00 in0.0 mm 0.03 in0.8 mm
02:21 AM 49.9°F9.9°C 48.1°F8.9°C 94% 2.0 mph SSW3.2 kmh SSW -- 30.12 in1020.0 mb 0.00 in0.0 mm 0.00 in0.0 mm 0.03 in0.8 mm
02:26 AM 49.8°F9.9°C 48.1°F8.9°C 94% 2.0 mph SSE3.2 kmh SSE -- 30.13 in1020.3 mb 0.00 in0.0 mm 0.00 in0.0 mm 0.03 in0.8 mm
02:31 AM 49.6°F9.8°C 48.0°F8.9°C 94% 2.0 mph S3.2 kmh S -- 30.13 in1020.3 mb 0.00 in0.0 mm 0.00 in0.0 mm 0.03 in0.8 mm
02:35 AM 49.5°F9.7°C 47.8°F8.8°C 94% 3.0 mph WSW4.8 kmh WSW -- 30.13 in1020.3 mb 0.00 in0.0 mm 0.00 in0.0 mm 0.03 in0.8 mm
02:41 AM 49.4°F9.7°C 47.8°F8.8°C 94% 1.0 mph SW1.6 kmh SW -- 30.13 in1020.3 mb 0.00 in0.0 mm 0.00 in0.0 mm 0.03 in0.8 mm
02:46 AM 49.3°F9.6°C 47.6°F8.7°C 94% 2.0 mph SW3.2 kmh SW -- 30.13 in1020.3 mb 0.00 in0.0 mm 0.00 in0.0 mm 0.03 in0.8 mm
02:51 AM 49.2°F9.6°C 47.6°F8.7°C 94% 1.0 mph SSW1.6 kmh SSW -- 30.13 in1020.3 mb 0.00 in0.0 mm 0.00 in0.0 mm 0.03 in0.8 mm
02:55 AM 48.9°F9.4°C 47.2°F8.4°C 94% 2.0 mph SW3.2 kmh SW -- 30.13 in1020.3 mb 0.00 in0.0 mm 0.00 in0.0 mm 0.03 in0.8 mm
03:01 AM 48.9°F9.4°C 47.0°F8.3°C 93% 2.0 mph S3.2 kmh S -- 30.13 in1020.3 mb 0.00 in0.0 mm 0.00 in0.0 mm 0.03 in0.8 mm
03:06 AM 48.9°F9.4°C 46.7°F8.2°C 92% 5.0 mph S8.0 kmh S -- 30.13 in1020.3 mb 0.00 in0.0 mm 0.00 in0.0 mm 0.03 in0.8 mm
03:11 AM 48.9°F9.4°C 46.1°F7.8°C 90% 4.0 mph S6.4 kmh S -- 30.13 in1020.3 mb 0.00 in0.0 mm 0.00 in0.0 mm 0.03 in0.8 mm
03:15 AM 48.9°F9.4°C 46.1°F7.8°C 90% 3.0 mph SSW4.8 kmh SSW -- 30.13 in1020.3 mb 0.00 in0.0 mm 0.00 in0.0 mm 0.03 in0.8 mm
03:25 AM 48.5°F9.2°C 45.1°F7.3°C 88% 3.0 mph SE4.8 kmh SE -- 30.13 in1020.3 mb 0.00 in0.0 mm 0.00 in0.0 mm 0.03 in0.8 mm
03:26 AM 48.4°F9.1°C 45.0°F7.2°C 88% 3.0 mph SSE4.8 kmh SSE -- 30.13 in1020.3 mb 0.00 in0.0 mm 0.00 in0.0 mm 0.03 in0.8 mm
03:31 AM 48.1°F8.9°C 44.3°F6.8°C 87% 6.0 mph S9.7 kmh S -- 30.14 in1020.7 mb 0.00 in0.0 mm 0.00 in0.0 mm 0.03 in0.8 mm
03:36 AM 48.1°F8.9°C 44.3°F6.8°C 87% 2.0 mph S3.2 kmh S -- 30.14 in1020.7 mb 0.00 in0.0 mm 0.00 in0.0 mm 0.03 in0.8 mm
03:40 AM 47.9°F8.8°C 44.4°F6.9°C 88% 5.0 mph SSE8.0 kmh SSE -- 30.14 in1020.7 mb 0.00 in0.0 mm 0.00 in0.0 mm 0.03 in0.8 mm
03:46 AM 47.9°F8.8°C 44.1°F6.7°C 87% 3.0 mph SW4.8 kmh SW -- 30.14 in1020.7 mb 0.00 in0.0 mm 0.00 in0.0 mm 0.03 in0.8 mm
03:51 AM 47.8°F8.8°C 44.7°F7.1°C 89% 2.0 mph S3.2 kmh S -- 30.15 in1021.0 mb 0.00 in0.0 mm 0.00 in0.0 mm 0.03 in0.8 mm
03:56 AM 47.6°F8.7°C 44.5°F6.9°C 89% 4.0 mph SSW6.4 kmh SSW -- 30.15 in1021.0 mb 0.00 in0.0 mm 0.00 in0.0 mm 0.03 in0.8 mm
04:01 AM 47.5°F8.6°C 43.5°F6.4°C 86% 5.0 mph SSW8.0 kmh SSW -- 30.15 in1021.0 mb 0.00 in0.0 mm 0.00 in0.0 mm 0.03 in0.8 mm
04:06 AM 47.8°F8.8°C 43.2°F6.2°C 84% 2.0 mph S3.2 kmh S -- 30.15 in1021.0 mb 0.00 in0.0 mm 0.00 in0.0 mm 0.03 in0.8 mm
04:11 AM 47.4°F8.6°C 43.1°F6.2°C 85% 4.0 mph S6.4 kmh S -- 30.15 in1021.0 mb 0.00 in0.0 mm 0.00 in0.0 mm 0.03 in0.8 mm
04:15 AM 47.3°F8.5°C 43.0°F6.1°C 85% 3.0 mph SE4.8 kmh SE -- 30.15 in1021.0 mb 0.00 in0.0 mm 0.00 in0.0 mm 0.03 in0.8 mm
04:21 AM 47.0°F8.3°C 42.6°F5.9°C 85% 3.0 mph SW4.8 kmh SW -- 30.15 in1021.0 mb 0.00 in0.0 mm 0.00 in0.0 mm 0.03 in0.8 mm
04:26 AM 46.7°F8.2°C 42.4°F5.8°C 85% 5.0 mph S8.0 kmh S -- 30.15 in1021.0 mb 0.00 in0.0 mm 0.00 in0.0 mm 0.03 in0.8 mm
04:31 AM 46.6°F8.1°C 41.3°F5.2°C 82% 7.0 mph SW11.3 kmh SW -- 30.15 in1021.0 mb 0.00 in0.0 mm 0.00 in0.0 mm 0.03 in0.8 mm
04:36 AM 46.7°F8.2°C 40.5°F4.7°C 79% 6.0 mph S9.7 kmh S -- 30.16 in1021.3 mb 0.00 in0.0 mm 0.00 in0.0 mm 0.03 in0.8 mm
04:40 AM 46.4°F8.0°C 40.2°F4.6°C 79% 3.0 mph SSE4.8 kmh SSE -- 30.16 in1021.3 mb 0.00 in0.0 mm 0.00 in0.0 mm 0.03 in0.8 mm
04:46 AM 46.0°F7.8°C 39.2°F4.0°C 77% 5.0 mph SSW8.0 kmh SSW -- 30.16 in1021.3 mb 0.00 in0.0 mm 0.00 in0.0 mm 0.03 in0.8 mm
04:51 AM 45.9°F7.7°C 38.6°F3.7°C 76% 6.0 mph S9.7 kmh S -- 30.16 in1021.3 mb 0.00 in0.0 mm 0.00 in0.0 mm 0.03 in0.8 mm
04:55 AM 45.6°F7.6°C 38.5°F3.6°C 76% 6.0 mph S9.7 kmh S -- 30.16 in1021.3 mb 0.00 in0.0 mm 0.00 in0.0 mm 0.03 in0.8 mm
04:56 AM 45.6°F7.6°C 38.5°F3.6°C 76% 4.0 mph S6.4 kmh S -- 30.16 in1021.3 mb 0.00 in0.0 mm 0.00 in0.0 mm 0.03 in0.8 mm
05:01 AM 45.4°F7.4°C 37.8°F3.2°C 75% 4.0 mph S6.4 kmh S -- 30.17 in1021.7 mb 0.00 in0.0 mm 0.00 in0.0 mm 0.03 in0.8 mm
05:06 AM 45.1°F7.3°C 38.3°F3.5°C 77% 7.0 mph S11.3 kmh S -- 30.17 in1021.7 mb 0.00 in0.0 mm 0.00 in0.0 mm 0.03 in0.8 mm
05:11 AM 45.0°F7.2°C 38.1°F3.4°C 77% 5.0 mph SSW8.0 kmh SSW -- 30.17 in1021.7 mb 0.00 in0.0 mm 0.00 in0.0 mm 0.03 in0.8 mm
05:15 AM 44.5°F6.9°C 35.5°F1.9°C 71% 5.0 mph S8.0 kmh S -- 30.18 in1022.0 mb 0.00 in0.0 mm 0.00 in0.0 mm 0.03 in0.8 mm
05:21 AM 44.4°F6.9°C 35.5°F1.9°C 71% 5.0 mph S8.0 kmh S -- 30.18 in1022.0 mb 0.00 in0.0 mm 0.00 in0.0 mm 0.03 in0.8 mm
05:26 AM 44.2°F6.8°C 35.7°F2.1°C 72% 4.0 mph S6.4 kmh S -- 30.18 in1022.0 mb 0.00 in0.0 mm 0.00 in0.0 mm 0.03 in0.8 mm
05:31 AM 44.0°F6.7°C 35.2°F1.8°C 71% 4.0 mph S6.4 kmh S -- 30.18 in1022.0 mb 0.00 in0.0 mm 0.00 in0.0 mm 0.03 in0.8 mm
05:35 AM 43.6°F6.4°C 34.3°F1.3°C 70% 6.0 mph SSW9.7 kmh SSW -- 30.19 in1022.4 mb 0.00 in0.0 mm 0.00 in0.0 mm 0.03 in0.8 mm
05:41 AM 43.3°F6.3°C 34.8°F1.6°C 72% 3.0 mph S4.8 kmh S -- 30.19 in1022.4 mb 0.00 in0.0 mm 0.00 in0.0 mm 0.03 in0.8 mm
05:46 AM 43.0°F6.1°C 35.2°F1.8°C 74% 5.0 mph S8.0 kmh S -- 30.19 in1022.4 mb 0.00 in0.0 mm 0.00 in0.0 mm 0.03 in0.8 mm
05:51 AM 42.7°F5.9°C 34.5°F1.4°C 73% 5.0 mph S8.0 kmh S -- 30.19 in1022.4 mb 0.00 in0.0 mm 0.00 in0.0 mm 0.03 in0.8 mm
05:55 AM 42.7°F5.9°C 33.4°F0.8°C 70% 8.0 mph S12.9 kmh S -- 30.20 in1022.7 mb 0.00 in0.0 mm 0.00 in0.0 mm 0.03 in0.8 mm
06:01 AM 42.8°F6.0°C 32.5°F0.3°C 67% 5.0 mph SSE8.0 kmh SSE -- 30.20 in1022.7 mb 0.00 in0.0 mm 0.00 in0.0 mm 0.03 in0.8 mm
06:06 AM 42.6°F5.9°C 32.3°F0.2°C 67% 9.0 mph SE14.5 kmh SE -- 30.20 in1022.7 mb 0.00 in0.0 mm 0.00 in0.0 mm 0.03 in0.8 mm
06:10 AM 42.3°F5.7°C 32.3°F0.2°C 68% 4.0 mph SSW6.4 kmh SSW -- 30.21 in1023.0 mb 0.00 in0.0 mm 0.00 in0.0 mm 0.03 in0.8 mm
06:15 AM 42.0°F5.6°C 31.0°F-0.6°C 65% 5.0 mph S8.0 kmh S -- 30.21 in1023.0 mb 0.00 in0.0 mm 0.00 in0.0 mm 0.03 in0.8 mm
06:21 AM 41.6°F5.3°C 31.3°F-0.4°C 67% 4.0 mph S6.4 kmh S -- 30.21 in1023.0 mb 0.00 in0.0 mm 0.00 in0.0 mm 0.03 in0.8 mm
06:26 AM 41.4°F5.2°C 30.7°F-0.7°C 66% 3.0 mph S4.8 kmh S -- 30.21 in1023.0 mb 0.00 in0.0 mm 0.00 in0.0 mm 0.03 in0.8 mm
06:31 AM 41.4°F5.2°C 31.5°F-0.3°C 68% 3.0 mph SW4.8 kmh SW -- 30.22 in1023.4 mb 0.00 in0.0 mm 0.00 in0.0 mm 0.03 in0.8 mm
06:35 AM 40.9°F4.9°C 31.0°F-0.6°C 68% 3.0 mph ESE4.8 kmh ESE -- 30.22 in1023.4 mb 0.00 in0.0 mm 0.00 in0.0 mm 0.03 in0.8 mm
06:41 AM 40.6°F4.8°C 30.8°F-0.7°C 68% 5.0 mph SSW8.0 kmh SSW -- 30.22 in1023.4 mb 0.00 in0.0 mm 0.00 in0.0 mm 0.03 in0.8 mm
06:46 AM 40.6°F4.8°C 30.8°F-0.7°C 68% 4.0 mph SSW6.4 kmh SSW -- 30.23 in1023.7 mb 0.00 in0.0 mm 0.00 in0.0 mm 0.03 in0.8 mm
06:50 AM 40.6°F4.8°C 31.5°F-0.3°C 70% 3.0 mph SSW4.8 kmh SSW -- 30.23 in1023.7 mb 0.00 in0.0 mm 0.00 in0.0 mm 0.03 in0.8 mm
06:56 AM 40.5°F4.7°C 30.2°F-1.0°C 67% 7.0 mph SSW11.3 kmh SSW -- 30.23 in1023.7 mb 0.00 in0.0 mm 0.00 in0.0 mm 0.03 in0.8 mm
07:01 AM 40.5°F4.7°C 30.2°F-1.0°C 67% 5.0 mph SSE8.0 kmh SSE -- 30.23 in1023.7 mb 0.00 in0.0 mm 0.00 in0.0 mm 0.03 in0.8 mm
07:06 AM 40.5°F4.7°C 29.5°F-1.4°C 65% 4.0 mph SSW6.4 kmh SSW -- 30.24 in1024.0 mb 0.00 in0.0 mm 0.00 in0.0 mm 0.03 in0.8 mm
07:10 AM 40.4°F4.7°C 29.5°F-1.4°C 65% 4.0 mph SW6.4 kmh SW -- 30.24 in1024.0 mb 0.00 in0.0 mm 0.00 in0.0 mm 0.03 in0.8 mm
07:16 AM 40.3°F4.6°C 29.7°F-1.3°C 66% 7.0 mph S11.3 kmh S -- 30.24 in1024.0 mb 0.00 in0.0 mm 0.00 in0.0 mm 0.03 in0.8 mm
07:21 AM 40.2°F4.6°C 29.7°F-1.3°C 66% 9.0 mph SE14.5 kmh SE -- 30.25 in1024.4 mb 0.00 in0.0 mm 0.00 in0.0 mm 0.03 in0.8 mm
07:26 AM 40.3°F4.6°C 29.3°F-1.5°C 65% 3.0 mph SSW4.8 kmh SSW -- 30.25 in1024.4 mb 0.00 in0.0 mm 0.00 in0.0 mm 0.03 in0.8 mm
07:30 AM 40.3°F4.6°C 28.9°F-1.7°C 64% 4.0 mph S6.4 kmh S -- 30.26 in1024.7 mb 0.00 in0.0 mm 0.00 in0.0 mm 0.03 in0.8 mm
07:36 AM 40.2°F4.6°C 29.7°F-1.3°C 66% 4.0 mph S6.4 kmh S -- 30.26 in1024.7 mb 0.00 in0.0 mm 0.00 in0.0 mm 0.03 in0.8 mm
07:41 AM 40.2°F4.6°C 29.7°F-1.3°C 66% 6.0 mph S9.7 kmh S -- 30.26 in1024.7 mb 0.00 in0.0 mm 0.00 in0.0 mm 0.03 in0.8 mm
07:46 AM 40.4°F4.7°C 29.9°F-1.2°C 66% 4.0 mph SSE6.4 kmh SSE -- 30.26 in1024.7 mb 0.00 in0.0 mm 0.00 in0.0 mm 0.03 in0.8 mm
07:50 AM 40.3°F4.6°C 29.3°F-1.5°C 65% 4.0 mph S6.4 kmh S -- 30.26 in1024.7 mb 0.00 in0.0 mm 0.00 in0.0 mm 0.03 in0.8 mm
07:56 AM 40.2°F4.6°C 29.7°F-1.3°C 66% 3.0 mph SSW4.8 kmh SSW -- 30.27 in1025.1 mb 0.00 in0.0 mm 0.00 in0.0 mm 0.03 in0.8 mm
08:01 AM 40.3°F4.6°C 29.3°F-1.5°C 65% 4.0 mph SW6.4 kmh SW -- 30.27 in1025.1 mb 0.00 in0.0 mm 0.00 in0.0 mm 0.03 in0.8 mm
08:05 AM 40.4°F4.7°C 28.7°F-1.8°C 63% 7.0 mph ESE11.3 kmh ESE -- 30.27 in1025.1 mb 0.00 in0.0 mm 0.00 in0.0 mm 0.03 in0.8 mm
08:11 AM 40.3°F4.6°C 28.2°F-2.1°C 62% 6.0 mph S9.7 kmh S -- 30.28 in1025.4 mb 0.00 in0.0 mm 0.00 in0.0 mm 0.03 in0.8 mm
08:16 AM 40.2°F4.6°C 27.8°F-2.3°C 61% 5.0 mph SSW8.0 kmh SSW -- 30.28 in1025.4 mb 0.00 in0.0 mm 0.00 in0.0 mm 0.03 in0.8 mm
08:21 AM 40.2°F4.6°C 27.8°F-2.3°C 61% 8.0 mph SW12.9 kmh SW -- 30.28 in1025.4 mb 0.00 in0.0 mm 0.00 in0.0 mm 0.03 in0.8 mm
08:26 AM 40.2°F4.6°C 28.9°F-1.7°C 64% 5.0 mph S8.0 kmh S -- 30.28 in1025.4 mb 0.00 in0.0 mm 0.00 in0.0 mm 0.03 in0.8 mm
08:30 AM 40.5°F4.7°C 29.1°F-1.6°C 64% 6.0 mph SSW9.7 kmh SSW -- 30.28 in1025.4 mb 0.00 in0.0 mm 0.00 in0.0 mm 0.03 in0.8 mm
08:36 AM 40.1°F4.5°C 28.0°F-2.2°C 62% 11.0 mph S17.7 kmh S -- 30.28 in1025.4 mb 0.00 in0.0 mm 0.00 in0.0 mm 0.03 in0.8 mm
08:41 AM 40.1°F4.5°C 28.4°F-2.0°C 63% 10.0 mph SW16.1 kmh SW -- 30.29 in1025.7 mb 0.00 in0.0 mm 0.00 in0.0 mm 0.03 in0.8 mm
08:45 AM 40.3°F4.6°C 28.2°F-2.1°C 62% 14.0 mph S22.5 kmh S -- 30.29 in1025.7 mb 0.00 in0.0 mm 0.00 in0.0 mm 0.03 in0.8 mm
08:51 AM 40.2°F4.6°C 28.5°F-1.9°C 63% 4.0 mph S6.4 kmh S -- 30.29 in1025.7 mb 0.00 in0.0 mm 0.00 in0.0 mm 0.03 in0.8 mm
08:56 AM 40.5°F4.7°C 28.7°F-1.8°C 63% 4.0 mph S6.4 kmh S -- 30.29 in1025.7 mb 0.00 in0.0 mm 0.00 in0.0 mm 0.03 in0.8 mm
09:01 AM 40.4°F4.7°C 28.3°F-2.1°C 62% 8.0 mph SE12.9 kmh SE -- 30.30 in1026.1 mb 0.00 in0.0 mm 0.00 in0.0 mm 0.03 in0.8 mm
09:05 AM 40.6°F4.8°C 28.1°F-2.2°C 61% 11.0 mph SSW17.7 kmh SSW -- 30.30 in1026.1 mb 0.00 in0.0 mm 0.00 in0.0 mm 0.03 in0.8 mm
09:11 AM 40.5°F4.7°C 27.9°F-2.3°C 61% 4.0 mph SE6.4 kmh SE -- 30.31 in1026.4 mb 0.00 in0.0 mm 0.00 in0.0 mm 0.03 in0.8 mm
09:16 AM 40.6°F4.8°C 28.1°F-2.2°C 61% 4.0 mph SE6.4 kmh SE -- 30.31 in1026.4 mb 0.00 in0.0 mm 0.00 in0.0 mm 0.03 in0.8 mm
09:21 AM 40.8°F4.9°C 27.9°F-2.3°C 60% 8.0 mph SE12.9 kmh SE -- 30.31 in1026.4 mb 0.00 in0.0 mm 0.00 in0.0 mm 0.03 in0.8 mm
09:25 AM 40.6°F4.8°C 27.3°F-2.6°C 59% 7.0 mph S11.3 kmh S -- 30.31 in1026.4 mb 0.00 in0.0 mm 0.00 in0.0 mm 0.03 in0.8 mm
09:31 AM 40.8°F4.9°C 27.0°F-2.8°C 58% 11.0 mph S17.7 kmh S -- 30.31 in1026.4 mb 0.00 in0.0 mm 0.00 in0.0 mm 0.03 in0.8 mm
09:36 AM 40.5°F4.7°C 27.1°F-2.7°C 59% 7.0 mph S11.3 kmh S -- 30.31 in1026.4 mb 0.00 in0.0 mm 0.00 in0.0 mm 0.03 in0.8 mm
09:41 AM 40.4°F4.7°C 25.8°F-3.4°C 56% 11.0 mph S17.7 kmh S -- 30.31 in1026.4 mb 0.00 in0.0 mm 0.00 in0.0 mm 0.03 in0.8 mm
09:45 AM 40.5°F4.7°C 26.7°F-2.9°C 58% 6.0 mph SSW9.7 kmh SSW -- 30.31 in1026.4 mb 0.00 in0.0 mm 0.00 in0.0 mm 0.03 in0.8 mm
09:51 AM 40.9°F4.9°C 27.0°F-2.8°C 58% 7.0 mph SSE11.3 kmh SSE -- 30.31 in1026.4 mb 0.00 in0.0 mm 0.00 in0.0 mm 0.03 in0.8 mm
09:56 AM 41.2°F5.1°C 27.4°F-2.6°C 58% 4.0 mph S6.4 kmh S -- 30.31 in1026.4 mb 0.00 in0.0 mm 0.00 in0.0 mm 0.03 in0.8 mm
10:00 AM 41.2°F5.1°C 26.5°F-3.1°C 56% 6.0 mph SSW9.7 kmh SSW -- 30.31 in1026.4 mb 0.00 in0.0 mm 0.00 in0.0 mm 0.03 in0.8 mm
10:05 AM 41.4°F5.2°C 27.1°F-2.7°C 57% 6.0 mph SSW9.7 kmh SSW -- 30.32 in1026.8 mb 0.00 in0.0 mm 0.00 in0.0 mm 0.03 in0.8 mm
10:11 AM 41.4°F5.2°C 27.1°F-2.7°C 57% 6.0 mph S9.7 kmh S -- 30.32 in1026.8 mb 0.00 in0.0 mm 0.00 in0.0 mm 0.03 in0.8 mm
10:16 AM 41.6°F5.3°C 28.1°F-2.2°C 59% 1.0 mph WSW1.6 kmh WSW -- 30.31 in1026.4 mb 0.00 in0.0 mm 0.00 in0.0 mm 0.03 in0.8 mm
10:21 AM 41.8°F5.4°C 26.6°F-3.0°C 55% 8.0 mph S12.9 kmh S -- 30.32 in1026.8 mb 0.00 in0.0 mm 0.00 in0.0 mm 0.03 in0.8 mm
10:25 AM 42.0°F5.6°C 26.9°F-2.8°C 55% 6.0 mph SSE9.7 kmh SSE -- 30.32 in1026.8 mb 0.00 in0.0 mm 0.00 in0.0 mm 0.03 in0.8 mm
10:31 AM 42.0°F5.6°C 26.9°F-2.8°C 55% 5.0 mph ESE8.0 kmh ESE -- 30.32 in1026.8 mb 0.00 in0.0 mm 0.00 in0.0 mm 0.03 in0.8 mm
10:36 AM 42.1°F5.6°C 26.5°F-3.1°C 54% 8.0 mph S12.9 kmh S -- 30.32 in1026.8 mb 0.00 in0.0 mm 0.00 in0.0 mm 0.03 in0.8 mm
10:41 AM 42.0°F5.6°C 26.5°F-3.1°C 54% 7.0 mph S11.3 kmh S -- 30.32 in1026.8 mb 0.00 in0.0 mm 0.00 in0.0 mm 0.03 in0.8 mm
10:46 AM 42.1°F5.6°C 27.4°F-2.6°C 56% 5.0 mph SSE8.0 kmh SSE -- 30.32 in1026.8 mb 0.00 in0.0 mm 0.00 in0.0 mm 0.03 in0.8 mm
10:51 AM 42.5°F5.8°C 27.2°F-2.7°C 55% 6.0 mph SE9.7 kmh SE -- 30.32 in1026.8 mb 0.00 in0.0 mm 0.00 in0.0 mm 0.03 in0.8 mm
10:56 AM 42.7°F5.9°C 27.0°F-2.8°C 54% 6.0 mph S9.7 kmh S -- 30.32 in1026.8 mb 0.00 in0.0 mm 0.00 in0.0 mm 0.03 in0.8 mm
11:00 AM 42.4°F5.8°C 25.4°F-3.7°C 51% 7.0 mph S11.3 kmh S -- 30.32 in1026.8 mb 0.00 in0.0 mm 0.00 in0.0 mm 0.03 in0.8 mm
11:06 AM 42.7°F5.9°C 26.5°F-3.1°C 53% 4.0 mph S6.4 kmh S -- 30.32 in1026.8 mb 0.00 in0.0 mm 0.00 in0.0 mm 0.03 in0.8 mm
11:11 AM 43.1°F6.2°C 27.0°F-2.8°C 53% 7.0 mph S11.3 kmh S -- 30.33 in1027.1 mb 0.00 in0.0 mm 0.00 in0.0 mm 0.03 in0.8 mm
11:15 AM 42.9°F6.1°C 26.4°F-3.1°C 52% 6.0 mph S9.7 kmh S -- 30.32 in1026.8 mb 0.00 in0.0 mm 0.00 in0.0 mm 0.03 in0.8 mm
11:20 AM 42.8°F6.0°C 25.7°F-3.5°C 51% 7.0 mph S11.3 kmh S -- 30.32 in1026.8 mb 0.00 in0.0 mm 0.00 in0.0 mm 0.03 in0.8 mm
11:26 AM 42.9°F6.1°C 26.8°F-2.9°C 53% 3.0 mph S4.8 kmh S -- 30.32 in1026.8 mb 0.00 in0.0 mm 0.00 in0.0 mm 0.03 in0.8 mm
11:30 AM 43.0°F6.1°C 25.9°F-3.4°C 51% 5.0 mph WSW8.0 kmh WSW -- 30.32 in1026.8 mb 0.00 in0.0 mm 0.00 in0.0 mm 0.03 in0.8 mm
11:36 AM 43.7°F6.5°C 26.6°F-3.0°C 51% 6.0 mph SSW9.7 kmh SSW -- 30.32 in1026.8 mb 0.00 in0.0 mm 0.00 in0.0 mm 0.03 in0.8 mm
11:40 AM 43.9°F6.6°C 26.3°F-3.2°C 50% 8.0 mph S12.9 kmh S -- 30.32 in1026.8 mb 0.00 in0.0 mm 0.00 in0.0 mm 0.03 in0.8 mm
11:46 AM 43.9°F6.6°C 26.7°F-2.9°C 51% 4.0 mph SW6.4 kmh SW -- 30.31 in1026.4 mb 0.00 in0.0 mm 0.00 in0.0 mm 0.03 in0.8 mm
11:51 AM 43.7°F6.5°C 24.6°F-4.1°C 47% 4.0 mph S6.4 kmh S -- 30.32 in1026.8 mb 0.00 in0.0 mm 0.00 in0.0 mm 0.03 in0.8 mm
11:55 AM 44.7°F7.1°C 25.1°F-3.8°C 46% 4.0 mph S6.4 kmh S -- 30.31 in1026.4 mb 0.00 in0.0 mm 0.00 in0.0 mm 0.03 in0.8 mm
11:56 AM 44.7°F7.1°C 25.1°F-3.8°C 46% 4.0 mph ESE6.4 kmh ESE -- 30.31 in1026.4 mb 0.00 in0.0 mm 0.00 in0.0 mm 0.03 in0.8 mm
12:00 PM 44.2°F6.8°C 25.1°F-3.8°C 47% 2.0 mph SW3.2 kmh SW -- 30.31 in1026.4 mb 0.00 in0.0 mm 0.00 in0.0 mm 0.03 in0.8 mm
12:06 PM 45.4°F7.4°C 26.1°F-3.3°C 47% 6.0 mph N9.7 kmh N -- 30.31 in1026.4 mb 0.00 in0.0 mm 0.00 in0.0 mm 0.03 in0.8 mm
12:11 PM 45.9°F7.7°C 26.6°F-3.0°C 47% 2.0 mph NE3.2 kmh NE -- 30.31 in1026.4 mb 0.00 in0.0 mm 0.00 in0.0 mm 0.03 in0.8 mm
12:16 PM 46.6°F8.1°C 23.9°F-4.5°C 41% 1.0 mph E1.6 kmh E -- 30.30 in1026.1 mb 0.00 in0.0 mm 0.00 in0.0 mm 0.03 in0.8 mm
12:21 PM 46.0°F7.8°C 24.6°F-4.1°C 43% 6.0 mph N9.7 kmh N -- 30.30 in1026.1 mb 0.00 in0.0 mm 0.00 in0.0 mm 0.03 in0.8 mm
12:26 PM 44.9°F7.2°C 22.5°F-5.3°C 41% 3.0 mph NNE4.8 kmh NNE -- 30.30 in1026.1 mb 0.00 in0.0 mm 0.00 in0.0 mm 0.03 in0.8 mm
12:31 PM 45.9°F7.7°C 23.9°F-4.5°C 42% 2.0 mph SSE3.2 kmh SSE -- 30.30 in1026.1 mb 0.00 in0.0 mm 0.00 in0.0 mm 0.03 in0.8 mm
12:36 PM 45.1°F7.3°C 21.4°F-5.9°C 39% 3.0 mph NE4.8 kmh NE -- 30.30 in1026.1 mb 0.00 in0.0 mm 0.00 in0.0 mm 0.03 in0.8 mm
12:40 PM 45.1°F7.3°C 20.8°F-6.2°C 38% 5.0 mph N8.0 kmh N -- 30.30 in1026.1 mb 0.00 in0.0 mm 0.00 in0.0 mm 0.03 in0.8 mm
12:45 PM 45.3°F7.4°C 21.6°F-5.8°C 39% 5.0 mph NE8.0 kmh NE -- 30.29 in1025.7 mb 0.00 in0.0 mm 0.00 in0.0 mm 0.03 in0.8 mm
12:51 PM 45.8°F7.7°C 22.1°F-5.5°C 39% 3.0 mph NE4.8 kmh NE -- 30.29 in1025.7 mb 0.00 in0.0 mm 0.00 in0.0 mm 0.03 in0.8 mm
12:56 PM 46.2°F7.9°C 21.2°F-6.0°C 37% 4.0 mph NE6.4 kmh NE -- 30.29 in1025.7 mb 0.00 in0.0 mm 0.00 in0.0 mm 0.03 in0.8 mm
01:00 PM 45.0°F7.2°C 20.0°F-6.7°C 37% 4.0 mph NE6.4 kmh NE -- 30.29 in1025.7 mb 0.00 in0.0 mm 0.00 in0.0 mm 0.03 in0.8 mm
01:06 PM 45.7°F7.6°C 20.0°F-6.7°C 36% 11.0 mph NNE17.7 kmh NNE -- 30.29 in1025.7 mb 0.00 in0.0 mm 0.00 in0.0 mm 0.03 in0.8 mm
01:10 PM 45.7°F7.6°C 20.0°F-6.7°C 36% 3.0 mph E4.8 kmh E -- 30.29 in1025.7 mb 0.00 in0.0 mm 0.00 in0.0 mm 0.03 in0.8 mm
01:15 PM 46.0°F7.8°C 18.3°F-7.6°C 33% 4.0 mph NNE6.4 kmh NNE -- 30.29 in1025.7 mb 0.00 in0.0 mm 0.00 in0.0 mm 0.03 in0.8 mm
01:20 PM 45.8°F7.7°C 18.9°F-7.3°C 34% 5.0 mph NNW8.0 kmh NNW -- 30.29 in1025.7 mb 0.00 in0.0 mm 0.00 in0.0 mm 0.03 in0.8 mm
01:26 PM 45.9°F7.7°C 20.2°F-6.6°C 36% 4.0 mph ENE6.4 kmh ENE -- 30.29 in1025.7 mb 0.00 in0.0 mm 0.00 in0.0 mm 0.03 in0.8 mm
01:30 PM 45.8°F7.7°C 20.2°F-6.6°C 36% 6.0 mph ENE9.7 kmh ENE -- 30.29 in1025.7 mb 0.00 in0.0 mm 0.00 in0.0 mm 0.03 in0.8 mm
01:36 PM 45.0°F7.2°C 16.6°F-8.6°C 32% 7.0 mph NNE11.3 kmh NNE -- 30.29 in1025.7 mb 0.00 in0.0 mm 0.00 in0.0 mm 0.03 in0.8 mm
01:40 PM 45.6°F7.6°C 21.3°F-5.9°C 38% 7.0 mph N11.3 kmh N -- 30.29 in1025.7 mb 0.00 in0.0 mm 0.00 in0.0 mm 0.03 in0.8 mm
01:46 PM 45.6°F7.6°C 18.0°F-7.8°C 33% 11.0 mph NNW17.7 kmh NNW -- 30.29 in1025.7 mb 0.00 in0.0 mm 0.00 in0.0 mm 0.03 in0.8 mm
01:51 PM 45.8°F7.7°C 19.5°F-6.9°C 35% 3.0 mph ESE4.8 kmh ESE -- 30.29 in1025.7 mb 0.00 in0.0 mm 0.00 in0.0 mm 0.03 in0.8 mm
01:55 PM 45.7°F7.6°C 18.0°F-7.8°C 33% 6.0 mph NNE9.7 kmh NNE -- 30.29 in1025.7 mb 0.00 in0.0 mm 0.00 in0.0 mm 0.03 in0.8 mm
02:00 PM 45.0°F7.2°C 18.7°F-7.4°C 35% 3.0 mph NW4.8 kmh NW -- 30.29 in1025.7 mb 0.00 in0.0 mm 0.00 in0.0 mm 0.03 in0.8 mm
02:11 PM 45.7°F7.6°C 20.0°F-6.7°C 36% 5.0 mph NE8.0 kmh NE -- 30.29 in1025.7 mb 0.00 in0.0 mm 0.00 in0.0 mm 0.03 in0.8 mm
02:16 PM 45.6°F7.6°C 19.4°F-7.0°C 35% 3.0 mph E4.8 kmh E -- 30.29 in1025.7 mb 0.00 in0.0 mm 0.00 in0.0 mm 0.03 in0.8 mm
02:20 PM 45.1°F7.3°C 19.6°F-6.9°C 36% 2.0 mph NE3.2 kmh NE -- 30.29 in1025.7 mb 0.00 in0.0 mm 0.00 in0.0 mm 0.03 in0.8 mm
02:26 PM 45.3°F7.4°C 21.0°F-6.1°C 38% 5.0 mph N8.0 kmh N -- 30.29 in1025.7 mb 0.00 in0.0 mm 0.00 in0.0 mm 0.03 in0.8 mm
02:31 PM 45.3°F7.4°C 19.7°F-6.8°C 36% 4.0 mph N6.4 kmh N -- 30.29 in1025.7 mb 0.00 in0.0 mm 0.00 in0.0 mm 0.03 in0.8 mm
02:36 PM 45.2°F7.3°C 20.2°F-6.6°C 37% 4.0 mph ENE6.4 kmh ENE -- 30.28 in1025.4 mb 0.00 in0.0 mm 0.00 in0.0 mm 0.03 in0.8 mm
02:41 PM 45.2°F7.3°C 19.6°F-6.9°C 36% 4.0 mph NE6.4 kmh NE -- 30.29 in1025.7 mb 0.00 in0.0 mm 0.00 in0.0 mm 0.03 in0.8 mm
02:46 PM 44.9°F7.2°C 18.7°F-7.4°C 35% 5.0 mph NW8.0 kmh NW -- 30.29 in1025.7 mb 0.00 in0.0 mm 0.00 in0.0 mm 0.03 in0.8 mm
02:51 PM 45.0°F7.2°C 18.7°F-7.4°C 35% 2.0 mph NE3.2 kmh NE -- 30.28 in1025.4 mb 0.00 in0.0 mm 0.00 in0.0 mm 0.03 in0.8 mm
02:55 PM 45.2°F7.3°C 20.2°F-6.6°C 37% 4.0 mph N6.4 kmh N -- 30.28 in1025.4 mb 0.00 in0.0 mm 0.00 in0.0 mm 0.03 in0.8 mm
03:01 PM 45.3°F7.4°C 19.1°F-7.2°C 35% 5.0 mph NE8.0 kmh NE -- 30.29 in1025.7 mb 0.00 in0.0 mm 0.00 in0.0 mm 0.03 in0.8 mm
03:06 PM 45.3°F7.4°C 19.7°F-6.8°C 36% 8.0 mph NNE12.9 kmh NNE -- 30.29 in1025.7 mb 0.00 in0.0 mm 0.00 in0.0 mm 0.03 in0.8 mm
03:10 PM 45.1°F7.3°C 20.8°F-6.2°C 38% 4.0 mph NE6.4 kmh NE -- 30.28 in1025.4 mb 0.00 in0.0 mm 0.00 in0.0 mm 0.03 in0.8 mm
03:15 PM 45.0°F7.2°C 21.3°F-5.9°C 39% 2.0 mph N3.2 kmh N -- 30.29 in1025.7 mb 0.00 in0.0 mm 0.00 in0.0 mm 0.03 in0.8 mm
03:21 PM 44.9°F7.2°C 19.4°F-7.0°C 36% 4.0 mph NW6.4 kmh NW -- 30.29 in1025.7 mb 0.00 in0.0 mm 0.00 in0.0 mm 0.03 in0.8 mm
03:25 PM 44.6°F7.0°C 18.4°F-7.6°C 35% 6.0 mph N9.7 kmh N -- 30.29 in1025.7 mb 0.00 in0.0 mm 0.00 in0.0 mm 0.03 in0.8 mm
03:31 PM 44.9°F7.2°C 19.4°F-7.0°C 36% 7.0 mph N11.3 kmh N -- 30.29 in1025.7 mb 0.00 in0.0 mm 0.00 in0.0 mm 0.03 in0.8 mm
03:35 PM 45.0°F7.2°C 20.0°F-6.7°C 37% 3.0 mph NE4.8 kmh NE -- 30.29 in1025.7 mb 0.00 in0.0 mm 0.00 in0.0 mm 0.03 in0.8 mm
03:41 PM 44.9°F7.2°C 18.7°F-7.4°C 35% 8.0 mph N12.9 kmh N -- 30.30 in1026.1 mb 0.00 in0.0 mm 0.00 in0.0 mm 0.03 in0.8 mm
03:46 PM 44.8°F7.1°C 20.5°F-6.4°C 38% 3.0 mph E4.8 kmh E -- 30.30 in1026.1 mb 0.00 in0.0 mm 0.00 in0.0 mm 0.03 in0.8 mm
03:50 PM 44.7°F7.1°C 20.5°F-6.4°C 38% 2.0 mph E3.2 kmh E -- 30.30 in1026.1 mb 0.00 in0.0 mm 0.00 in0.0 mm 0.03 in0.8 mm
03:55 PM 44.5°F6.9°C 22.6°F-5.2°C 42% 4.0 mph NNE6.4 kmh NNE -- 30.30 in1026.1 mb 0.00 in0.0 mm 0.00 in0.0 mm 0.03 in0.8 mm
04:01 PM 44.5°F6.9°C 19.6°F-6.9°C 37% 4.0 mph NNE6.4 kmh NNE -- 30.30 in1026.1 mb 0.00 in0.0 mm 0.00 in0.0 mm 0.03 in0.8 mm
04:06 PM 44.4°F6.9°C 20.8°F-6.2°C 39% 4.0 mph ENE6.4 kmh ENE -- 30.30 in1026.1 mb 0.00 in0.0 mm 0.00 in0.0 mm 0.03 in0.8 mm
04:11 PM 44.3°F6.8°C 19.4°F-7.0°C 37% 4.0 mph NE6.4 kmh NE -- 30.30 in1026.1 mb 0.00 in0.0 mm 0.00 in0.0 mm 0.03 in0.8 mm
04:15 PM 44.0°F6.7°C 20.5°F-6.4°C 39% 3.0 mph N4.8 kmh N -- 30.31 in1026.4 mb 0.00 in0.0 mm 0.00 in0.0 mm 0.03 in0.8 mm
04:21 PM 43.6°F6.4°C 21.2°F-6.0°C 41% 4.0 mph N6.4 kmh N -- 30.30 in1026.1 mb 0.00 in0.0 mm 0.00 in0.0 mm 0.03 in0.8 mm
04:26 PM 43.7°F6.5°C 19.5°F-6.9°C 38% 4.0 mph NE6.4 kmh NE -- 30.30 in1026.1 mb 0.00 in0.0 mm 0.00 in0.0 mm 0.03 in0.8 mm
04:31 PM 43.6°F6.4°C 20.0°F-6.7°C 39% 2.0 mph NE3.2 kmh NE -- 30.30 in1026.1 mb 0.00 in0.0 mm 0.00 in0.0 mm 0.03 in0.8 mm
04:36 PM 43.5°F6.4°C 19.4°F-7.0°C 38% 2.0 mph N3.2 kmh N -- 30.30 in1026.1 mb 0.00 in0.0 mm 0.00 in0.0 mm 0.03 in0.8 mm
04:41 PM 43.4°F6.3°C 19.2°F-7.1°C 38% 2.0 mph ENE3.2 kmh ENE -- 30.31 in1026.4 mb 0.00 in0.0 mm 0.00 in0.0 mm 0.03 in0.8 mm
04:46 PM 43.2°F6.2°C 18.4°F-7.6°C 37% 4.0 mph NE6.4 kmh NE -- 30.31 in1026.4 mb 0.00 in0.0 mm 0.00 in0.0 mm 0.03 in0.8 mm
04:50 PM 43.0°F6.1°C 18.9°F-7.3°C 38% 5.0 mph NE8.0 kmh NE -- 30.31 in1026.4 mb 0.00 in0.0 mm 0.00 in0.0 mm 0.03 in0.8 mm
04:56 PM 42.9°F6.1°C 19.5°F-6.9°C 39% 2.0 mph ENE3.2 kmh ENE -- 30.31 in1026.4 mb 0.00 in0.0 mm 0.00 in0.0 mm 0.03 in0.8 mm
05:01 PM 42.7°F5.9°C 20.4°F-6.4°C 41% 2.0 mph ESE3.2 kmh ESE -- 30.31 in1026.4 mb 0.00 in0.0 mm 0.00 in0.0 mm 0.03 in0.8 mm
05:05 PM 42.4°F5.8°C 20.8°F-6.2°C 42% 1.0 mph E1.6 kmh E -- 30.31 in1026.4 mb 0.00 in0.0 mm 0.00 in0.0 mm 0.03 in0.8 mm
05:10 PM 42.3°F5.7°C 20.6°F-6.3°C 42% 2.0 mph NE3.2 kmh NE -- 30.31 in1026.4 mb 0.00 in0.0 mm 0.00 in0.0 mm 0.03 in0.8 mm
05:16 PM 41.9°F5.5°C 21.4°F-5.9°C 44% 2.0 mph ENE3.2 kmh ENE -- 30.32 in1026.8 mb 0.00 in0.0 mm 0.00 in0.0 mm 0.03 in0.8 mm
05:20 PM 41.6°F5.3°C 21.0°F-6.1°C 44% 2.0 mph SE3.2 kmh SE -- 30.32 in1026.8 mb 0.00 in0.0 mm 0.00 in0.0 mm 0.03 in0.8 mm
05:26 PM 41.1°F5.1°C 22.3°F-5.4°C 47% 2.0 mph E3.2 kmh E -- 30.32 in1026.8 mb 0.00 in0.0 mm 0.00 in0.0 mm 0.03 in0.8 mm
05:30 PM 40.5°F4.7°C 24.5°F-4.2°C 53% 1.0 mph E1.6 kmh E -- 30.32 in1026.8 mb 0.00 in0.0 mm 0.00 in0.0 mm 0.03 in0.8 mm
05:36 PM 39.9°F4.4°C 23.5°F-4.7°C 52% 2.0 mph NE3.2 kmh NE -- 30.32 in1026.8 mb 0.00 in0.0 mm 0.00 in0.0 mm 0.03 in0.8 mm
05:41 PM 39.6°F4.2°C 23.2°F-4.9°C 52% 1.0 mph SE1.6 kmh SE -- 30.32 in1026.8 mb 0.00 in0.0 mm 0.00 in0.0 mm 0.03 in0.8 mm
05:45 PM 39.2°F4.0°C 22.9°F-5.1°C 52% 2.0 mph ESE3.2 kmh ESE -- 30.32 in1026.8 mb 0.00 in0.0 mm 0.00 in0.0 mm 0.03 in0.8 mm
05:50 PM 38.9°F3.8°C 23.9°F-4.5°C 55% 1.0 mph SE1.6 kmh SE -- 30.32 in1026.8 mb 0.00 in0.0 mm 0.00 in0.0 mm 0.03 in0.8 mm
05:56 PM 38.6°F3.7°C 23.3°F-4.8°C 54% 1.0 mph SE1.6 kmh SE -- 30.33 in1027.1 mb 0.00 in0.0 mm 0.00 in0.0 mm 0.03 in0.8 mm
06:01 PM 38.4°F3.6°C 22.7°F-5.2°C 53% Calm Calm -- 30.33 in1027.1 mb 0.00 in0.0 mm 0.00 in0.0 mm 0.03 in0.8 mm
06:06 PM 38.2°F3.4°C 21.9°F-5.6°C 52% 2.0 mph ENE3.2 kmh ENE -- 30.33 in1027.1 mb 0.00 in0.0 mm 0.00 in0.0 mm 0.03 in0.8 mm
06:11 PM 38.1°F3.4°C 21.9°F-5.6°C 52% Calm Calm -- 30.33 in1027.1 mb 0.00 in0.0 mm 0.00 in0.0 mm 0.03 in0.8 mm
06:16 PM 37.9°F3.3°C 22.6°F-5.2°C 54% Calm Calm -- 30.33 in1027.1 mb 0.00 in0.0 mm 0.00 in0.0 mm 0.03 in0.8 mm
06:21 PM 37.5°F3.1°C 22.3°F-5.4°C 54% Calm Calm -- 30.34 in1027.4 mb 0.00 in0.0 mm 0.00 in0.0 mm 0.03 in0.8 mm
06:26 PM 37.3°F2.9°C 22.4°F-5.3°C 55% Calm Calm -- 30.34 in1027.4 mb 0.00 in0.0 mm 0.00 in0.0 mm 0.03 in0.8 mm
06:30 PM 36.8°F2.7°C 22.9°F-5.1°C 57% Calm Calm -- 30.34 in1027.4 mb 0.00 in0.0 mm 0.00 in0.0 mm 0.03 in0.8 mm
06:35 PM 36.4°F2.4°C 22.4°F-5.3°C 57% Calm Calm -- 30.34 in1027.4 mb 0.00 in0.0 mm 0.00 in0.0 mm 0.03 in0.8 mm
06:41 PM 36.0°F2.2°C 22.9°F-5.1°C 59% Calm Calm -- 30.35 in1027.8 mb 0.00 in0.0 mm 0.00 in0.0 mm 0.03 in0.8 mm
06:46 PM 35.7°F2.1°C 23.1°F-4.9°C 60% Calm Calm -- 30.35 in1027.8 mb 0.00 in0.0 mm 0.00 in0.0 mm 0.03 in0.8 mm
06:50 PM 35.5°F1.9°C 23.2°F-4.9°C 61% Calm Calm -- 30.35 in1027.8 mb 0.00 in0.0 mm 0.00 in0.0 mm 0.03 in0.8 mm
06:56 PM 35.2°F1.8°C 23.4°F-4.8°C 62% 1.0 mph SSE1.6 kmh SSE -- 30.35 in1027.8 mb 0.00 in0.0 mm 0.00 in0.0 mm 0.03 in0.8 mm
07:00 PM 35.0°F1.7°C 23.6°F-4.7°C 63% Calm Calm -- 30.36 in1028.1 mb 0.00 in0.0 mm 0.00 in0.0 mm 0.03 in0.8 mm
07:06 PM 34.8°F1.6°C 23.8°F-4.6°C 64% Calm Calm -- 30.36 in1028.1 mb 0.00 in0.0 mm 0.00 in0.0 mm 0.03 in0.8 mm
07:10 PM 34.6°F1.4°C 23.1°F-4.9°C 63% Calm Calm -- 30.36 in1028.1 mb 0.00 in0.0 mm 0.00 in0.0 mm 0.03 in0.8 mm
07:15 PM 34.5°F1.4°C 24.2°F-4.3°C 66% Calm Calm -- 30.36 in1028.1 mb 0.00 in0.0 mm 0.00 in0.0 mm 0.03 in0.8 mm
07:21 PM 34.2°F1.2°C 23.9°F-4.5°C 66% Calm Calm -- 30.36 in1028.1 mb 0.00 in0.0 mm 0.00 in0.0 mm 0.03 in0.8 mm
07:26 PM 34.1°F1.2°C 23.9°F-4.5°C 66% Calm Calm -- 30.36 in1028.1 mb 0.00 in0.0 mm 0.00 in0.0 mm 0.03 in0.8 mm
07:30 PM 33.7°F0.9°C 23.7°F-4.6°C 67% Calm Calm -- 30.36 in1028.1 mb 0.00 in0.0 mm 0.00 in0.0 mm 0.03 in0.8 mm
07:36 PM 33.4°F0.8°C 23.9°F-4.5°C 68% Calm Calm -- 30.36 in1028.1 mb 0.00 in0.0 mm 0.00 in0.0 mm 0.03 in0.8 mm
07:41 PM 33.2°F0.7°C 23.7°F-4.6°C 68% Calm Calm -- 30.37 in1028.4 mb 0.00 in0.0 mm 0.00 in0.0 mm 0.03 in0.8 mm
07:46 PM 32.9°F0.5°C 23.7°F-4.6°C 69% Calm Calm -- 30.37 in1028.4 mb 0.00 in0.0 mm 0.00 in0.0 mm 0.03 in0.8 mm
07:50 PM 32.8°F0.4°C 23.9°F-4.5°C 70% Calm Calm -- 30.37 in1028.4 mb 0.00 in0.0 mm 0.00 in0.0 mm 0.03 in0.8 mm
07:56 PM 32.6°F0.3°C 23.7°F-4.6°C 70% Calm Calm -- 30.37 in1028.4 mb 0.00 in0.0 mm 0.00 in0.0 mm 0.03 in0.8 mm
08:01 PM 32.5°F0.3°C 25.1°F-3.8°C 74% Calm Calm -- 30.38 in1028.8 mb 0.00 in0.0 mm 0.00 in0.0 mm 0.03 in0.8 mm
08:05 PM 32.5°F0.3°C 25.1°F-3.8°C 74% 2.0 mph N3.2 kmh N -- 30.38 in1028.8 mb 0.00 in0.0 mm 0.00 in0.0 mm 0.03 in0.8 mm
08:10 PM 32.7°F0.4°C 24.9°F-3.9°C 73% Calm Calm -- 30.38 in1028.8 mb 0.00 in0.0 mm 0.00 in0.0 mm 0.03 in0.8 mm
08:16 PM 32.7°F0.4°C 24.6°F-4.1°C 72% Calm Calm -- 30.38 in1028.8 mb 0.00 in0.0 mm 0.00 in0.0 mm 0.03 in0.8 mm
08:21 PM 32.6°F0.3°C 24.7°F-4.1°C 73% 2.0 mph ENE3.2 kmh ENE -- 30.38 in1028.8 mb 0.00 in0.0 mm 0.00 in0.0 mm 0.03 in0.8 mm
08:26 PM 32.7°F0.4°C 25.2°F-3.8°C 74% 2.0 mph NW3.2 kmh NW -- 30.38 in1028.8 mb 0.00 in0.0 mm 0.00 in0.0 mm 0.03 in0.8 mm
08:30 PM 32.7°F0.4°C 25.2°F-3.8°C 74% 1.0 mph NNE1.6 kmh NNE -- 30.38 in1028.8 mb 0.00 in0.0 mm 0.00 in0.0 mm 0.03 in0.8 mm
08:36 PM 32.6°F0.3°C 24.7°F-4.1°C 73% Calm Calm -- 30.38 in1028.8 mb 0.00 in0.0 mm 0.00 in0.0 mm 0.03 in0.8 mm
08:41 PM 32.6°F0.3°C 25.1°F-3.8°C 74% 2.0 mph SW3.2 kmh SW -- 30.38 in1028.8 mb 0.00 in0.0 mm 0.00 in0.0 mm 0.03 in0.8 mm
08:46 PM 32.5°F0.3°C 24.4°F-4.2°C 72% Calm Calm -- 30.38 in1028.8 mb 0.00 in0.0 mm 0.00 in0.0 mm 0.03 in0.8 mm
08:50 PM 32.3°F0.2°C 24.2°F-4.3°C 72% 2.0 mph NNW3.2 kmh NNW -- 30.38 in1028.8 mb 0.00 in0.0 mm 0.00 in0.0 mm 0.03 in0.8 mm
08:55 PM 32.5°F0.3°C 24.7°F-4.1°C 73% 1.0 mph N1.6 kmh N -- 30.38 in1028.8 mb 0.00 in0.0 mm 0.00 in0.0 mm 0.03 in0.8 mm
09:01 PM 32.6°F0.3°C 23.7°F-4.6°C 70% 2.0 mph NW3.2 kmh NW -- 30.38 in1028.8 mb 0.00 in0.0 mm 0.00 in0.0 mm 0.03 in0.8 mm
09:06 PM 32.7°F0.4°C 24.9°F-3.9°C 73% 2.0 mph 3.2 kmh -- 30.38 in1028.8 mb 0.00 in0.0 mm 0.00 in0.0 mm 0.03 in0.8 mm
09:10 PM 33.4°F0.8°C 23.9°F-4.5°C 68% 2.0 mph NE3.2 kmh NE -- 30.38 in1028.8 mb 0.00 in0.0 mm 0.00 in0.0 mm 0.03 in0.8 mm
09:16 PM 34.0°F1.1°C 24.0°F-4.4°C 67% 4.0 mph NE6.4 kmh NE -- 30.39 in1029.1 mb 0.00 in0.0 mm 0.00 in0.0 mm 0.03 in0.8 mm
09:20 PM 34.3°F1.3°C 23.3°F-4.8°C 64% 2.0 mph E3.2 kmh E -- 30.38 in1028.8 mb 0.00 in0.0 mm 0.00 in0.0 mm 0.03 in0.8 mm
09:26 PM 34.4°F1.3°C 23.3°F-4.8°C 64% 2.0 mph NE3.2 kmh NE -- 30.39 in1029.1 mb 0.00 in0.0 mm 0.00 in0.0 mm 0.03 in0.8 mm
09:30 PM 34.5°F1.4°C 24.2°F-4.3°C 66% Calm Calm -- 30.39 in1029.1 mb 0.00 in0.0 mm 0.00 in0.0 mm 0.03 in0.8 mm
09:35 PM 34.0°F1.1°C 24.4°F-4.2°C 68% 1.0 mph ENE1.6 kmh ENE -- 30.39 in1029.1 mb 0.00 in0.0 mm 0.00 in0.0 mm 0.03 in0.8 mm
09:41 PM 33.4°F0.8°C 24.6°F-4.1°C 70% 2.0 mph NE3.2 kmh NE -- 30.39 in1029.1 mb 0.00 in0.0 mm 0.00 in0.0 mm 0.03 in0.8 mm
09:46 PM 33.2°F0.7°C 24.1°F-4.4°C 69% Calm Calm -- 30.39 in1029.1 mb 0.00 in0.0 mm 0.00 in0.0 mm 0.03 in0.8 mm
09:50 PM 33.1°F0.6°C 23.2°F-4.9°C 67% 2.0 mph WNW3.2 kmh WNW -- 30.39 in1029.1 mb 0.00 in0.0 mm 0.00 in0.0 mm 0.03 in0.8 mm
09:56 PM 33.0°F0.6°C 23.9°F-4.5°C 69% 1.0 mph E1.6 kmh E -- 30.39 in1029.1 mb 0.00 in0.0 mm 0.00 in0.0 mm 0.03 in0.8 mm
10:01 PM 32.7°F0.4°C 23.2°F-4.9°C 68% Calm Calm -- 30.39 in1029.1 mb 0.00 in0.0 mm 0.00 in0.0 mm 0.03 in0.8 mm
10:05 PM 32.4°F0.2°C 23.2°F-4.9°C 69% Calm Calm -- 30.39 in1029.1 mb 0.00 in0.0 mm 0.00 in0.0 mm 0.03 in0.8 mm
10:11 PM 32.2°F0.1°C 23.4°F-4.8°C 70% 2.0 mph E3.2 kmh E -- 30.39 in1029.1 mb 0.00 in0.0 mm 0.00 in0.0 mm 0.03 in0.8 mm
10:16 PM 31.9°F-0.1°C 23.7°F-4.6°C 72% 1.0 mph E1.6 kmh E -- 30.39 in1029.1 mb 0.00 in0.0 mm 0.00 in0.0 mm 0.03 in0.8 mm
10:21 PM 31.8°F-0.1°C 23.4°F-4.8°C 71% 1.0 mph SE1.6 kmh SE -- 30.39 in1029.1 mb 0.00 in0.0 mm 0.00 in0.0 mm 0.03 in0.8 mm
10:26 PM 31.8°F-0.1°C 23.4°F-4.8°C 71% Calm Calm -- 30.39 in1029.1 mb 0.00 in0.0 mm 0.00 in0.0 mm 0.03 in0.8 mm
10:31 PM 31.7°F-0.2°C 23.5°F-4.7°C 72% 1.0 mph SE1.6 kmh SE -- 30.39 in1029.1 mb 0.00 in0.0 mm 0.00 in0.0 mm 0.03 in0.8 mm
10:36 PM 31.6°F-0.2°C 23.5°F-4.7°C 72% Calm Calm -- 30.39 in1029.1 mb 0.00 in0.0 mm 0.00 in0.0 mm 0.03 in0.8 mm
10:41 PM 31.4°F-0.3°C 23.0°F-5.0°C 71% Calm Calm -- 30.39 in1029.1 mb 0.00 in0.0 mm 0.00 in0.0 mm 0.03 in0.8 mm
10:45 PM 31.2°F-0.4°C 23.5°F-4.7°C 73% Calm Calm -- 30.38 in1028.8 mb 0.00 in0.0 mm 0.00 in0.0 mm 0.03 in0.8 mm
10:50 PM 31.0°F-0.6°C 23.5°F-4.7°C 74% Calm Calm -- 30.38 in1028.8 mb 0.00 in0.0 mm 0.00 in0.0 mm 0.03 in0.8 mm
10:56 PM 30.8°F-0.7°C 23.0°F-5.0°C 73% Calm Calm -- 30.38 in1028.8 mb 0.00 in0.0 mm 0.00 in0.0 mm 0.03 in0.8 mm
11:01 PM 30.5°F-0.8°C 22.8°F-5.1°C 73% Calm Calm -- 30.38 in1028.8 mb 0.00 in0.0 mm 0.00 in0.0 mm 0.03 in0.8 mm
11:05 PM 30.2°F-1.0°C 22.8°F-5.1°C 74% Calm Calm -- 30.38 in1028.8 mb 0.00 in0.0 mm 0.00 in0.0 mm 0.03 in0.8 mm
11:11 PM 30.2°F-1.0°C 23.8°F-4.6°C 77% 1.0 mph E1.6 kmh E -- 30.38 in1028.8 mb 0.00 in0.0 mm 0.00 in0.0 mm 0.03 in0.8 mm
11:15 PM 30.1°F-1.1°C 23.3°F-4.8°C 76% Calm Calm -- 30.38 in1028.8 mb 0.00 in0.0 mm 0.00 in0.0 mm 0.03 in0.8 mm
11:21 PM 30.1°F-1.1°C 23.6°F-4.7°C 77% 1.0 mph ESE1.6 kmh ESE -- 30.38 in1028.8 mb 0.00 in0.0 mm 0.00 in0.0 mm 0.03 in0.8 mm
11:25 PM 29.9°F-1.2°C 23.1°F-4.9°C 76% Calm Calm -- 30.39 in1029.1 mb 0.00 in0.0 mm 0.00 in0.0 mm 0.03 in0.8 mm
11:30 PM 29.8°F-1.2°C 23.4°F-4.8°C 77% Calm Calm -- 30.38 in1028.8 mb 0.00 in0.0 mm 0.00 in0.0 mm 0.03 in0.8 mm
11:36 PM 29.7°F-1.3°C 23.6°F-4.7°C 78% Calm Calm -- 30.38 in1028.8 mb 0.00 in0.0 mm 0.00 in0.0 mm 0.03 in0.8 mm
11:40 PM 29.8°F-1.2°C 24.0°F-4.4°C 79% 1.0 mph SE1.6 kmh SE -- 30.39 in1029.1 mb 0.00 in0.0 mm 0.00 in0.0 mm 0.03 in0.8 mm
11:45 PM 29.7°F-1.3°C 23.6°F-4.7°C 78% Calm Calm -- 30.38 in1028.8 mb 0.00 in0.0 mm 0.00 in0.0 mm 0.03 in0.8 mm
11:51 PM 29.6°F-1.3°C 23.6°F-4.7°C 78% Calm Calm -- 30.38 in1028.8 mb 0.00 in0.0 mm 0.00 in0.0 mm 0.03 in0.8 mm
11:55 PM 29.5°F-1.4°C 23.4°F-4.8°C 78% Calm Calm -- 30.39 in1029.1 mb 0.00 in0.0 mm 0.00 in0.0 mm 0.06 in1.5 mm